createdAt,value
2023-04-10T00:02:26.971Z,30.27
2023-04-10T00:04:54.393Z,33.67
2023-04-10T00:07:21.499Z,33.03
2023-04-10T00:09:48.797Z,35.78
2023-04-10T00:12:16.146Z,38.17
2023-04-10T00:14:43.243Z,37.10
2023-04-10T00:17:10.802Z,38.08
2023-04-10T00:19:37.970Z,34.17
2023-04-10T00:22:05.690Z,34.78
2023-04-10T00:24:32.794Z,34.22
2023-04-10T00:26:59.964Z,35.58
2023-04-10T00:29:27.071Z,36.63
2023-04-10T00:31:54.308Z,33.17
2023-04-10T00:34:21.447Z,35.58
2023-04-10T00:36:48.567Z,30.98
2023-04-10T00:39:15.895Z,32.13
2023-04-10T00:41:43.130Z,33.70
2023-04-10T00:44:10.417Z,35.35
2023-04-10T00:46:38.501Z,31.73
2023-04-10T00:49:06.456Z,32.97
2023-04-10T00:51:33.752Z,32.90
2023-04-10T00:54:02.271Z,36.08
2023-04-10T00:56:32.008Z,31.77
2023-04-10T00:58:59.110Z,32.38
2023-04-10T01:01:26.347Z,33.38
2023-04-10T01:03:54.320Z,34.17
2023-04-10T01:06:46.156Z,33.45
2023-04-10T01:09:13.295Z,34.25
2023-04-10T01:11:46.357Z,33.67
2023-04-10T01:14:22.966Z,33.40
2023-04-10T01:16:58.446Z,32.08
2023-04-10T01:19:25.959Z,35.63
2023-04-10T01:21:55.491Z,37.08
2023-04-10T01:24:30.465Z,37.97
2023-04-10T01:27:33.319Z,35.95
2023-04-10T01:30:02.366Z,34.10
2023-04-10T01:32:30.773Z,35.28
2023-04-10T01:34:57.974Z,36.15
2023-04-10T01:37:31.870Z,35.72
2023-04-10T01:40:00.893Z,35.15
2023-04-10T01:42:31.581Z,37.38
2023-04-10T01:44:59.366Z,34.83
2023-04-10T01:47:27.915Z,36.42
2023-04-10T01:49:55.849Z,38.65
2023-04-10T01:52:23.680Z,35.13
2023-04-10T01:54:51.246Z,36.83
2023-04-10T01:57:18.397Z,40.03
2023-04-10T01:59:45.628Z,38.50
2023-04-10T02:02:13.013Z,37.60
2023-04-10T02:04:40.495Z,43.88
2023-04-10T02:07:09.811Z,43.72
2023-04-10T02:09:50.442Z,42.10
2023-04-10T02:12:19.375Z,45.17
2023-04-10T02:14:47.988Z,43.13
2023-04-10T02:17:17.048Z,43.65
2023-04-10T02:19:46.086Z,44.38
2023-04-10T02:22:13.365Z,48.58
2023-04-10T02:24:40.625Z,47.80
2023-04-10T02:27:07.720Z,50.35
2023-04-10T02:29:34.843Z,49.45
2023-04-10T02:32:02.031Z,51.40
2023-04-10T02:34:29.210Z,52.55
2023-04-10T02:36:56.374Z,55.80
2023-04-10T02:39:23.469Z,54.58
2023-04-10T02:41:50.609Z,57.65
2023-04-10T02:44:17.723Z,57.88
2023-04-10T02:46:45.026Z,57.95
2023-04-10T02:49:12.194Z,48.35
2023-04-10T02:51:39.287Z,60.08
2023-04-10T02:54:06.481Z,54.60
2023-04-10T02:56:36.983Z,53.00
2023-04-10T02:59:04.150Z,49.97
2023-04-10T03:01:32.142Z,49.30
2023-04-10T03:03:59.441Z,47.38
2023-04-10T03:06:27.419Z,47.72
2023-04-10T03:08:54.713Z,49.35
2023-04-10T03:11:22.233Z,45.63
2023-04-10T03:13:49.381Z,47.75
2023-04-10T03:16:18.767Z,43.85
2023-04-10T03:18:46.323Z,48.17
2023-04-10T03:21:13.504Z,51.33
2023-04-10T03:23:40.642Z,46.30
2023-04-10T03:26:08.572Z,49.38
2023-04-10T03:28:36.693Z,47.67
2023-04-10T03:31:04.648Z,41.03
2023-04-10T03:33:31.801Z,45.22
2023-04-10T03:35:58.955Z,42.67
2023-04-10T03:38:26.305Z,44.78
2023-04-10T03:40:53.914Z,39.75
2023-04-10T03:43:21.034Z,38.60
2023-04-10T03:45:48.241Z,44.15
2023-04-10T03:48:15.345Z,39.55
2023-04-10T03:50:42.542Z,41.72
2023-04-10T03:53:09.889Z,44.60
2023-04-10T03:55:38.581Z,42.67
2023-04-10T03:58:06.190Z,42.03
2023-04-10T04:00:33.470Z,40.83
2023-04-10T04:03:01.116Z,47.50
2023-04-10T04:05:28.474Z,44.42
2023-04-10T04:07:55.635Z,47.20
2023-04-10T04:10:22.768Z,45.83
2023-04-10T04:12:49.896Z,46.80
2023-04-10T04:15:17.434Z,43.67
2023-04-10T04:17:46.228Z,47.03
2023-04-10T04:20:13.453Z,46.92
2023-04-10T04:22:41.593Z,41.38
2023-04-10T04:25:11.182Z,43.22
2023-04-10T04:27:38.500Z,45.33
2023-04-10T04:30:06.450Z,43.80
2023-04-10T04:32:33.575Z,42.40
2023-04-10T04:35:00.695Z,47.00
2023-04-10T04:37:27.849Z,44.05
2023-04-10T04:39:54.970Z,42.92
2023-04-10T04:42:22.058Z,45.58
2023-04-10T04:44:50.388Z,56.25
2023-04-10T04:47:17.708Z,51.97
2023-04-10T04:49:44.809Z,53.03
2023-04-10T04:52:12.058Z,46.50
2023-04-10T04:54:39.236Z,44.90
2023-04-10T04:57:07.835Z,41.75
2023-04-10T04:59:35.072Z,41.42
2023-04-10T05:02:02.335Z,40.03
2023-04-10T05:04:29.689Z,41.75
2023-04-10T05:06:56.835Z,37.40
2023-04-10T05:09:23.940Z,38.05
2023-04-10T05:11:51.380Z,39.25
2023-04-10T05:14:18.631Z,37.75
2023-04-10T05:16:45.973Z,38.03
2023-04-10T05:19:13.057Z,34.33
2023-04-10T05:21:40.417Z,37.13
2023-04-10T05:24:07.571Z,35.80
2023-04-10T05:26:34.723Z,36.15
2023-04-10T05:29:01.887Z,34.40
2023-04-10T05:31:29.047Z,30.80
2023-04-10T05:33:56.206Z,32.17
2023-04-10T05:36:23.460Z,30.60
2023-04-10T05:38:50.560Z,30.00
2023-04-10T05:41:17.676Z,33.55
2023-04-10T05:43:44.815Z,29.30
2023-04-10T05:46:12.086Z,35.30
2023-04-10T05:48:39.560Z,35.47
2023-04-10T05:51:06.875Z,30.42
2023-04-10T05:53:34.134Z,36.95
2023-04-10T05:56:02.147Z,31.98
2023-04-10T05:58:29.515Z,30.25
2023-04-10T06:00:56.601Z,31.55
2023-04-10T06:03:23.967Z,30.73
2023-04-10T06:05:51.629Z,31.92
2023-04-10T06:08:19.560Z,34.78
2023-04-10T06:10:49.770Z,36.42
2023-04-10T06:13:17.169Z,34.53
2023-04-10T06:15:44.389Z,37.70
2023-04-10T06:18:11.703Z,33.03
2023-04-10T06:20:38.957Z,36.65
2023-04-10T06:23:06.400Z,38.72
2023-04-10T06:25:33.628Z,38.53
2023-04-10T06:28:00.850Z,35.42
2023-04-10T06:30:28.063Z,32.65
2023-04-10T06:32:55.320Z,36.15
2023-04-10T06:35:22.783Z,36.00
2023-04-10T06:37:49.884Z,35.65
2023-04-10T06:40:16.989Z,31.77
2023-04-10T06:42:44.202Z,36.22
2023-04-10T06:45:11.345Z,32.47
2023-04-10T06:47:38.514Z,31.45
2023-04-10T06:50:05.995Z,38.15
2023-04-10T06:52:33.549Z,36.33
2023-04-10T06:55:00.786Z,35.95
2023-04-10T06:57:28.873Z,37.17
2023-04-10T06:59:56.160Z,34.13
2023-04-10T07:02:23.610Z,37.00
2023-04-10T07:04:51.027Z,40.45
2023-04-10T07:07:19.315Z,39.97
2023-04-10T07:09:46.448Z,40.45
2023-04-10T07:12:13.585Z,37.75
2023-04-10T07:14:41.270Z,32.72
2023-04-10T07:17:08.726Z,37.08
2023-04-10T07:19:36.030Z,39.22
2023-04-10T07:22:03.180Z,41.33
2023-04-10T07:24:31.572Z,38.80
2023-04-10T07:27:00.721Z,37.75
2023-04-10T07:29:27.870Z,43.20
2023-04-10T07:31:55.406Z,41.83
2023-04-10T07:34:22.615Z,45.33
2023-04-10T07:36:49.977Z,43.88
2023-04-10T07:39:17.068Z,42.17
2023-04-10T07:41:44.267Z,44.35
2023-04-10T07:44:13.094Z,41.08
2023-04-10T07:46:40.276Z,40.88
2023-04-10T07:49:08.752Z,35.20
2023-04-10T07:51:36.227Z,42.60
2023-04-10T07:54:04.060Z,39.75
2023-04-10T07:56:31.496Z,39.53
2023-04-10T07:59:00.804Z,39.60
2023-04-10T08:01:28.816Z,31.55
2023-04-10T08:03:56.855Z,37.55
2023-04-10T08:06:24.184Z,36.70
2023-04-10T08:08:52.535Z,31.17
2023-04-10T08:11:26.214Z,35.33
2023-04-10T08:13:53.587Z,30.30
2023-04-10T08:16:24.810Z,36.92
2023-04-10T08:21:20.235Z,39.42
2023-04-10T08:23:47.397Z,37.60
2023-04-10T08:26:14.703Z,31.20
2023-04-10T08:28:47.099Z,34.70
2023-04-10T08:31:14.525Z,38.05
2023-04-10T08:33:41.828Z,43.13
2023-04-10T08:36:09.719Z,37.20
2023-04-10T08:38:36.933Z,28.30
2023-04-10T08:41:04.131Z,33.63
2023-04-10T08:43:31.337Z,32.47
2023-04-10T08:45:58.771Z,30.85
2023-04-10T08:48:28.591Z,29.63
2023-04-10T08:50:56.710Z,28.50
2023-04-10T08:53:25.444Z,23.40
2023-04-10T08:55:52.696Z,21.65
2023-04-10T08:58:19.789Z,22.30
2023-04-10T09:00:47.174Z,24.40
2023-04-10T09:03:15.673Z,23.08
2023-04-10T09:05:42.858Z,18.10
2023-04-10T09:08:11.045Z,19.35
2023-04-10T09:10:38.374Z,18.38
2023-04-10T09:13:05.843Z,22.60
2023-04-10T09:15:52.981Z,18.30
2023-04-10T09:18:20.117Z,20.95
2023-04-10T09:20:51.442Z,22.52
2023-04-10T09:23:22.300Z,22.17
2023-04-10T09:25:51.081Z,23.67
2023-04-10T09:28:18.366Z,23.65
2023-04-10T09:30:46.373Z,24.58
2023-04-10T09:33:24.926Z,21.80
2023-04-10T09:35:52.124Z,23.48
2023-04-10T09:38:20.588Z,25.45
2023-04-10T09:40:48.302Z,25.52
2023-04-10T09:43:17.694Z,29.98
2023-04-10T09:45:54.404Z,19.77
2023-04-10T09:48:22.548Z,22.33
2023-04-10T09:50:49.681Z,19.15
2023-04-10T09:53:19.293Z,24.80
2023-04-10T09:55:47.320Z,21.92
2023-04-10T09:58:15.763Z,24.38
2023-04-10T10:00:43.774Z,27.08
2023-04-10T10:03:12.575Z,28.13
2023-04-10T10:05:43.626Z,24.90
2023-04-10T10:08:11.726Z,30.00
2023-04-10T10:11:11.317Z,22.70
2023-04-10T10:13:42.394Z,22.65
2023-04-10T10:16:13.605Z,22.08
2023-04-10T10:18:41.041Z,21.45
2023-04-10T10:21:09.560Z,21.58
2023-04-10T10:23:38.283Z,23.88
2023-04-10T10:26:08.496Z,22.15
2023-04-10T10:28:36.696Z,22.27
2023-04-10T10:31:04.305Z,22.55
2023-04-10T10:33:31.846Z,21.95
2023-04-10T10:36:00.910Z,18.15
2023-04-10T10:38:28.524Z,17.00
2023-04-10T10:41:00.297Z,16.63
2023-04-10T10:43:36.412Z,14.93
2023-04-10T10:46:15.742Z,13.27
2023-04-10T10:48:56.170Z,11.43
2023-04-10T10:51:23.419Z,11.35
2023-04-10T10:53:50.604Z,12.73
2023-04-10T10:56:20.930Z,10.77
2023-04-10T10:58:48.737Z,10.43
2023-04-10T11:01:16.306Z,12.73
2023-04-10T11:03:47.175Z,9.32
2023-04-10T11:06:19.553Z,10.55
2023-04-10T11:08:48.114Z,12.27
2023-04-10T11:11:18.138Z,10.32
2023-04-10T11:13:56.318Z,10.00
2023-04-10T11:16:34.082Z,11.10
2023-04-10T11:19:13.993Z,10.68
2023-04-10T11:22:01.275Z,10.18
2023-04-10T11:24:28.774Z,10.23
2023-04-10T11:26:56.752Z,9.18
2023-04-10T11:29:26.874Z,9.90
2023-04-10T11:31:54.062Z,9.40
2023-04-10T11:34:21.312Z,10.20
2023-04-10T11:36:48.472Z,10.20
2023-04-10T11:39:18.816Z,13.10
2023-04-10T11:41:46.915Z,9.65
2023-04-10T11:44:16.310Z,8.23
2023-04-10T11:46:47.394Z,7.65
2023-04-10T11:49:21.459Z,9.07
2023-04-10T11:51:49.378Z,7.03
2023-04-10T11:54:20.686Z,6.93
2023-04-10T11:56:58.755Z,7.55
2023-04-10T11:59:25.968Z,7.07
2023-04-10T12:01:54.297Z,6.97
2023-04-10T12:04:22.834Z,7.80
2023-04-10T12:06:51.130Z,6.80
2023-04-10T12:09:19.643Z,9.73
2023-04-10T12:11:54.056Z,8.30
2023-04-10T12:14:22.192Z,9.43
2023-04-10T12:16:50.092Z,13.82
2023-04-10T12:19:18.140Z,9.93
2023-04-10T12:21:46.193Z,10.98
2023-04-10T12:24:13.743Z,12.48
2023-04-10T12:26:48.709Z,13.55
2023-04-10T12:29:15.877Z,16.70
2023-04-10T12:31:43.072Z,14.75
2023-04-10T12:34:11.372Z,12.50
2023-04-10T12:36:38.616Z,12.60
2023-04-10T12:39:06.135Z,14.80
2023-04-10T12:41:34.296Z,15.07
2023-04-10T12:44:11.896Z,16.45
2023-04-10T12:46:39.380Z,23.13
2023-04-10T12:49:16.345Z,16.83
2023-04-10T12:51:50.701Z,18.52
2023-04-10T12:54:31.741Z,17.08
2023-04-10T12:56:59.038Z,12.13
2023-04-10T12:59:26.653Z,11.80
2023-04-10T13:01:54.204Z,15.45
2023-04-10T13:04:22.139Z,15.30
2023-04-10T13:06:52.637Z,13.35
2023-04-10T13:09:19.904Z,12.95
2023-04-10T13:11:48.093Z,12.82
2023-04-10T13:14:16.939Z,9.98
2023-04-10T13:16:44.237Z,12.88
2023-04-10T13:19:13.026Z,11.65
2023-04-10T13:21:40.277Z,6.75
2023-04-10T13:24:07.363Z,7.15
2023-04-10T13:26:34.525Z,12.57
2023-04-10T13:29:01.612Z,5.60
2023-04-10T13:31:28.742Z,8.95
2023-04-10T13:33:55.923Z,8.23
2023-04-10T13:36:23.409Z,8.32
2023-04-10T13:38:50.915Z,6.43
2023-04-10T13:41:18.330Z,6.43
2023-04-10T13:43:45.407Z,8.20
2023-04-10T13:46:12.500Z,6.75
2023-04-10T13:48:41.496Z,12.05
2023-04-10T13:51:08.902Z,6.03
2023-04-10T13:53:36.123Z,5.88
2023-04-10T13:56:03.312Z,5.88
2023-04-10T13:58:32.165Z,6.75
2023-04-10T14:00:59.525Z,6.63
2023-04-10T14:03:26.886Z,7.45
2023-04-10T14:05:54.622Z,7.85
2023-04-10T14:08:21.693Z,7.28
2023-04-10T14:10:51.658Z,9.00
2023-04-10T14:13:19.447Z,7.55
2023-04-10T14:15:47.898Z,7.07
2023-04-10T14:18:18.404Z,9.13
2023-04-10T14:20:45.546Z,8.63
2023-04-10T14:23:18.189Z,8.80
2023-04-10T14:25:46.231Z,10.27
2023-04-10T14:28:19.680Z,11.25
2023-04-10T14:30:50.636Z,11.68
2023-04-10T14:33:20.963Z,9.90
2023-04-10T14:35:48.448Z,9.57
2023-04-10T14:38:16.019Z,11.40
2023-04-10T14:40:45.713Z,10.27
2023-04-10T14:43:12.804Z,11.40
2023-04-10T14:45:39.920Z,12.23
2023-04-10T14:48:07.130Z,11.68
2023-04-10T14:50:34.320Z,12.38
2023-04-10T14:53:01.651Z,11.93
2023-04-10T14:55:31.809Z,13.73
2023-04-10T14:57:59.131Z,12.02
2023-04-10T15:00:26.854Z,14.40
2023-04-10T15:02:54.213Z,13.15
2023-04-10T15:05:23.002Z,14.75
2023-04-10T15:07:50.162Z,11.65
2023-04-10T15:10:17.365Z,11.25
2023-04-10T15:12:44.446Z,10.45
2023-04-10T15:15:11.808Z,14.85
2023-04-10T15:17:38.899Z,13.73
2023-04-10T15:20:06.407Z,12.23
2023-04-10T15:22:35.613Z,11.70
2023-04-10T15:25:02.856Z,12.95
2023-04-10T15:27:29.940Z,12.00
2023-04-10T15:29:57.101Z,14.63
2023-04-10T15:32:24.315Z,12.40
2023-04-10T15:34:51.412Z,14.35
2023-04-10T15:37:18.564Z,11.55
2023-04-10T15:39:45.697Z,11.48
2023-04-10T15:42:12.818Z,11.93
2023-04-10T15:44:39.942Z,11.38
2023-04-10T15:47:07.026Z,13.82
2023-04-10T15:49:37.717Z,13.68
2023-04-10T15:52:08.707Z,12.98
2023-04-10T15:54:36.105Z,12.45
2023-04-10T15:57:03.875Z,17.35
2023-04-10T15:59:31.099Z,15.18
2023-04-10T16:01:58.332Z,15.52
2023-04-10T16:04:25.753Z,14.45
2023-04-10T16:06:53.031Z,15.48
2023-04-10T16:09:25.310Z,13.68
2023-04-10T16:11:53.782Z,15.52
2023-04-10T16:14:20.931Z,15.65
2023-04-10T16:16:48.143Z,15.43
2023-04-10T16:19:15.284Z,14.13
2023-04-10T16:21:42.867Z,13.18
2023-04-10T16:24:10.001Z,14.60
2023-04-10T16:26:37.165Z,13.73
2023-04-10T16:29:04.247Z,19.48
2023-04-10T16:31:31.648Z,14.32
2023-04-10T16:33:59.003Z,15.57
2023-04-10T16:36:27.110Z,16.05
2023-04-10T16:38:54.529Z,15.60
2023-04-10T16:41:22.845Z,17.63
2023-04-10T16:43:49.951Z,19.50
2023-04-10T16:46:17.141Z,16.23
2023-04-10T16:48:45.012Z,17.58
2023-04-10T16:51:18.702Z,17.27
2023-04-10T16:53:45.813Z,16.40
2023-04-10T16:56:13.252Z,18.45
2023-04-10T16:58:42.036Z,16.58
2023-04-10T17:01:19.666Z,15.65
2023-04-10T17:03:47.532Z,16.20
2023-04-10T17:06:16.199Z,15.50
2023-04-10T17:08:43.566Z,20.35
2023-04-10T17:11:12.570Z,18.63
2023-04-10T17:13:40.448Z,17.05
2023-04-10T17:16:08.253Z,15.27
2023-04-10T17:18:35.427Z,14.88
2023-04-10T17:21:02.527Z,16.13
2023-04-10T17:23:29.973Z,13.93
2023-04-10T17:25:57.088Z,15.45
2023-04-10T17:28:24.234Z,14.57
2023-04-10T17:30:51.492Z,14.35
2023-04-10T17:33:18.595Z,16.35
2023-04-10T17:35:45.761Z,14.38
2023-04-10T17:38:13.463Z,18.17
2023-04-10T17:40:41.124Z,19.42
2023-04-10T17:43:08.480Z,15.02
2023-04-10T17:45:39.318Z,15.15
2023-04-10T17:48:06.791Z,14.55
2023-04-10T17:50:34.218Z,18.40
2023-04-10T17:53:01.531Z,16.80
2023-04-10T17:55:28.692Z,16.67
2023-04-10T17:57:57.691Z,16.58
2023-04-10T18:00:24.988Z,19.48
2023-04-10T18:02:57.959Z,17.85
2023-04-10T18:05:25.507Z,19.25
2023-04-10T18:07:52.634Z,16.52
2023-04-10T18:10:19.858Z,17.75
2023-04-10T18:12:47.141Z,16.50
2023-04-10T18:15:14.488Z,18.30
2023-04-10T18:17:41.763Z,15.95
2023-04-10T18:20:09.077Z,16.48
2023-04-10T18:22:36.223Z,16.15
2023-04-10T18:25:03.388Z,17.50
2023-04-10T18:27:31.762Z,17.02
2023-04-10T18:29:58.896Z,19.10
2023-04-10T18:32:26.048Z,17.13
2023-04-10T18:34:53.220Z,18.05
2023-04-10T18:37:20.309Z,17.00
2023-04-10T18:39:47.486Z,18.48
2023-04-10T18:42:14.720Z,18.42
2023-04-10T18:44:41.932Z,18.35
2023-04-10T18:47:10.972Z,21.05
2023-04-10T18:49:38.307Z,20.55
2023-04-10T18:52:05.595Z,18.63
2023-04-10T18:54:33.929Z,20.42
2023-04-10T18:57:01.091Z,17.92
2023-04-10T18:59:28.539Z,20.75
2023-04-10T19:01:55.981Z,20.48
2023-04-10T19:04:23.327Z,21.80
2023-04-10T19:06:51.286Z,18.58
2023-04-10T19:09:18.560Z,22.20
2023-04-10T19:11:45.910Z,18.20
2023-04-10T19:14:12.984Z,20.80
2023-04-10T19:16:40.137Z,20.83
2023-04-10T19:19:07.274Z,21.15
2023-04-10T19:21:34.501Z,22.92
2023-04-10T19:24:01.721Z,18.70
2023-04-10T19:26:28.924Z,19.17
2023-04-10T19:28:56.287Z,18.05
2023-04-10T19:31:27.493Z,19.90
2023-04-10T19:36:21.850Z,16.98
2023-04-10T19:38:51.093Z,17.83
2023-04-10T19:41:18.744Z,20.10
2023-04-10T19:43:45.880Z,19.38
2023-04-10T19:46:16.745Z,19.63
2023-04-10T19:48:43.918Z,19.52
2023-04-10T19:51:11.254Z,23.85
2023-04-10T19:53:38.759Z,20.02
2023-04-10T19:56:06.330Z,19.38
2023-04-10T19:58:40.559Z,19.10
2023-04-10T20:01:20.744Z,19.05
2023-04-10T20:03:47.936Z,17.13
2023-04-10T20:06:16.268Z,21.70
2023-04-10T20:08:43.549Z,20.58
2023-04-10T20:11:10.656Z,23.55
2023-04-10T20:13:39.201Z,19.77
2023-04-10T20:16:07.732Z,23.10
2023-04-10T20:18:35.072Z,19.05
2023-04-10T20:21:02.325Z,21.67
2023-04-10T20:23:29.500Z,17.75
2023-04-10T20:25:56.612Z,20.40
2023-04-10T20:28:23.716Z,22.73
2023-04-10T20:30:50.964Z,23.17
2023-04-10T20:33:18.069Z,22.65
2023-04-10T20:35:45.752Z,20.35
2023-04-10T20:38:12.984Z,21.00
2023-04-10T20:40:40.190Z,19.50
2023-04-10T20:43:11.272Z,18.92
2023-04-10T20:45:39.021Z,20.95
2023-04-10T20:48:06.595Z,19.50
2023-04-10T20:50:33.806Z,17.95
2023-04-10T20:53:00.972Z,18.75
2023-04-10T20:55:28.110Z,20.33
2023-04-10T20:57:55.361Z,18.35
2023-04-10T21:00:22.579Z,19.08
2023-04-10T21:02:49.850Z,18.92
2023-04-10T21:05:17.066Z,21.42
2023-04-10T21:07:45.922Z,18.98
2023-04-10T21:10:13.030Z,19.73
2023-04-10T21:12:40.178Z,20.40
2023-04-10T21:15:07.757Z,20.23
2023-04-10T21:17:34.922Z,19.02
2023-04-10T21:20:02.188Z,21.98
2023-04-10T21:22:29.570Z,18.67
2023-04-10T21:24:56.796Z,20.83
2023-04-10T21:27:23.902Z,17.85
2023-04-10T21:29:51.037Z,19.63
2023-04-10T21:32:18.195Z,17.42
2023-04-10T21:34:45.293Z,17.52
2023-04-10T21:37:12.542Z,22.13
2023-04-10T21:39:42.679Z,19.40
2023-04-10T21:42:09.787Z,20.70
2023-04-10T21:44:36.982Z,19.98
2023-04-10T21:47:04.701Z,20.50
2023-04-10T21:49:31.802Z,19.20
2023-04-10T21:51:59.339Z,20.67
2023-04-10T21:54:26.479Z,20.90
2023-04-10T21:56:53.557Z,17.67
2023-04-10T21:59:20.753Z,19.42
2023-04-10T22:01:48.005Z,20.00
2023-04-10T22:04:15.602Z,23.73
2023-04-10T22:06:42.843Z,20.15
2023-04-10T22:09:10.182Z,17.33
2023-04-10T22:11:39.113Z,19.05
2023-04-10T22:14:15.815Z,20.15
2023-04-10T22:16:44.630Z,19.17
2023-04-10T22:19:11.877Z,19.08
2023-04-10T22:21:38.970Z,20.13
2023-04-10T22:24:06.402Z,18.67
2023-04-10T22:26:34.765Z,20.13
2023-04-10T22:29:01.917Z,17.80
2023-04-10T22:31:29.053Z,20.55
2023-04-10T22:33:56.250Z,18.70
2023-04-10T22:36:23.656Z,18.85
2023-04-10T22:38:50.764Z,18.25
2023-04-10T22:41:17.888Z,18.33
2023-04-10T22:43:45.049Z,19.20
2023-04-10T22:46:12.154Z,18.67
2023-04-10T22:48:39.478Z,18.75
2023-04-10T22:51:11.235Z,16.73
2023-04-10T22:53:38.593Z,21.25
2023-04-10T22:56:06.311Z,18.98
2023-04-10T22:58:33.499Z,18.17
2023-04-10T23:01:00.592Z,22.10
2023-04-10T23:03:27.792Z,18.05
2023-04-10T23:05:54.959Z,16.83
2023-04-10T23:08:22.030Z,19.60
2023-04-10T23:10:49.133Z,17.05
2023-04-10T23:13:16.251Z,17.67
2023-04-10T23:15:48.801Z,19.15
2023-04-10T23:18:16.323Z,20.20
2023-04-10T23:20:43.611Z,20.55
2023-04-10T23:23:10.673Z,19.65
2023-04-10T23:25:37.849Z,17.85
2023-04-10T23:28:05.202Z,19.27
2023-04-10T23:30:32.547Z,16.60
2023-04-10T23:32:59.743Z,21.38
2023-04-10T23:35:27.667Z,19.98
2023-04-10T23:37:55.011Z,19.73
2023-04-10T23:40:22.295Z,21.50
2023-04-10T23:42:49.434Z,19.23
2023-04-10T23:45:16.537Z,19.58
2023-04-10T23:47:43.684Z,19.85
2023-04-10T23:50:11.116Z,18.70
2023-04-10T23:52:38.185Z,20.23
2023-04-10T23:55:05.665Z,22.30
2023-04-10T23:57:32.780Z,18.55
